createdAt,value
2024-03-16T00:02:36.022Z,18.60
2024-03-16T00:05:24.020Z,11.25
2024-03-16T00:08:12.024Z,24.25
2024-03-16T00:11:01.117Z,14.88
2024-03-16T00:13:49.048Z,16.55
2024-03-16T00:16:37.645Z,16.33
2024-03-16T00:19:25.516Z,13.63
2024-03-16T00:22:13.804Z,13.00
2024-03-16T00:25:02.446Z,14.18
2024-03-16T00:27:54.115Z,11.15
2024-03-16T00:30:42.304Z,12.07
2024-03-16T00:33:30.485Z,17.63
2024-03-16T00:36:18.787Z,16.73
2024-03-16T00:39:16.810Z,14.43
2024-03-16T00:42:05.298Z,15.95
2024-03-16T00:44:53.627Z,16.35
2024-03-16T00:47:41.463Z,14.40
2024-03-16T00:50:29.543Z,15.00
2024-03-16T00:53:19.188Z,15.80
2024-03-16T00:56:07.395Z,18.38
2024-03-16T00:58:55.407Z,14.77
2024-03-16T01:01:44.086Z,17.65
2024-03-16T01:04:34.086Z,14.75
2024-03-16T01:07:22.171Z,18.75
2024-03-16T01:10:13.031Z,16.23
2024-03-16T01:13:01.081Z,18.65
2024-03-16T01:15:49.135Z,17.13
2024-03-16T01:18:37.250Z,15.82
2024-03-16T01:21:25.583Z,16.48
2024-03-16T01:24:13.724Z,18.08
2024-03-16T01:27:04.818Z,15.95
2024-03-16T01:29:52.575Z,18.13
2024-03-16T01:32:40.549Z,18.17
2024-03-16T01:35:28.400Z,16.20
2024-03-16T01:38:16.723Z,15.88
2024-03-16T01:41:04.804Z,17.42
2024-03-16T01:43:52.900Z,16.92
2024-03-16T01:46:42.801Z,17.30
2024-03-16T01:49:30.906Z,17.55
2024-03-16T01:52:18.925Z,16.02
2024-03-16T01:55:07.135Z,15.27
2024-03-16T01:57:55.198Z,17.20
2024-03-16T02:00:48.707Z,16.67
2024-03-16T02:03:37.344Z,15.35
2024-03-16T02:06:25.881Z,13.60
2024-03-16T02:09:13.914Z,15.10
2024-03-16T02:12:01.765Z,17.55
2024-03-16T02:14:49.687Z,21.73
2024-03-16T02:17:37.975Z,25.80
2024-03-16T02:20:27.850Z,26.88
2024-03-16T02:23:16.661Z,29.40
2024-03-16T02:26:06.050Z,27.05
2024-03-16T02:28:54.066Z,21.42
2024-03-16T02:31:42.677Z,27.75
2024-03-16T02:34:30.586Z,23.05
2024-03-16T02:37:20.252Z,22.73
2024-03-16T02:40:12.813Z,22.42
2024-03-16T02:43:00.982Z,29.05
2024-03-16T02:45:48.978Z,26.80
2024-03-16T02:48:36.991Z,24.23
2024-03-16T02:51:25.140Z,24.23
2024-03-16T02:54:13.401Z,26.35
2024-03-16T02:57:05.160Z,26.23
2024-03-16T02:59:53.034Z,22.70
2024-03-16T03:02:41.035Z,22.88
2024-03-16T03:05:29.118Z,24.02
2024-03-16T03:08:17.133Z,20.50
2024-03-16T03:11:05.736Z,24.00
2024-03-16T03:13:53.698Z,28.70
2024-03-16T03:16:41.676Z,25.63
2024-03-16T03:19:29.554Z,24.45
2024-03-16T03:22:17.824Z,26.02
2024-03-16T03:25:06.581Z,31.13
2024-03-16T03:27:54.701Z,36.50
2024-03-16T03:30:43.437Z,34.03
2024-03-16T03:33:31.999Z,32.28
2024-03-16T03:36:19.909Z,34.38
2024-03-16T03:39:08.247Z,40.75
2024-03-16T03:41:56.262Z,41.00
2024-03-16T03:44:51.685Z,47.30
2024-03-16T03:47:51.652Z,40.72
2024-03-16T03:50:40.040Z,44.15
2024-03-16T03:53:28.163Z,35.30
2024-03-16T03:56:16.230Z,33.58
2024-03-16T03:59:04.203Z,50.72
2024-03-16T04:01:52.327Z,45.40
2024-03-16T04:04:41.779Z,45.20
2024-03-16T04:07:29.851Z,43.10
2024-03-16T04:10:17.784Z,37.72
2024-03-16T04:13:06.086Z,41.88
2024-03-16T04:15:54.052Z,44.35
2024-03-16T04:18:42.037Z,48.05
2024-03-16T04:21:30.058Z,40.13
2024-03-16T04:24:18.073Z,48.97
2024-03-16T04:27:06.407Z,54.58
2024-03-16T04:29:54.556Z,44.42
2024-03-16T04:32:42.862Z,53.00
2024-03-16T04:35:30.891Z,40.65
2024-03-16T04:38:18.858Z,48.45
2024-03-16T04:41:07.089Z,40.85
2024-03-16T04:43:55.033Z,52.50
2024-03-16T04:46:42.993Z,41.80
2024-03-16T04:49:30.897Z,66.45
2024-03-16T04:52:18.944Z,60.83
2024-03-16T04:55:07.395Z,54.53
2024-03-16T04:57:55.524Z,66.30
2024-03-16T05:00:43.445Z,56.92
2024-03-16T05:03:32.149Z,67.15
2024-03-16T05:06:20.033Z,99.35
2024-03-16T05:09:09.413Z,46.60
2024-03-16T05:11:57.539Z,43.95
2024-03-16T05:14:45.440Z,44.08
2024-03-16T05:17:33.787Z,41.75
2024-03-16T05:20:22.897Z,44.58
2024-03-16T05:23:10.868Z,48.22
2024-03-16T05:26:00.342Z,42.05
2024-03-16T05:28:48.871Z,46.85
2024-03-16T05:31:37.354Z,45.15
2024-03-16T05:34:25.523Z,58.28
2024-03-16T05:37:13.542Z,62.90
2024-03-16T05:40:01.724Z,54.00
2024-03-16T05:42:49.659Z,40.75
2024-03-16T05:45:37.597Z,35.65
2024-03-16T05:48:25.420Z,48.13
2024-03-16T05:51:14.059Z,42.20
2024-03-16T05:54:05.283Z,46.65
2024-03-16T05:56:53.613Z,39.67
2024-03-16T05:59:41.503Z,41.67
2024-03-16T06:02:29.471Z,58.42
2024-03-16T06:05:17.400Z,50.33
2024-03-16T06:08:06.236Z,45.35
2024-03-16T06:10:54.381Z,44.33
2024-03-16T06:13:42.525Z,44.22
2024-03-16T06:16:30.949Z,44.88
2024-03-16T06:19:19.049Z,37.35
2024-03-16T06:22:09.011Z,33.50
2024-03-16T06:24:56.960Z,42.25
2024-03-16T06:27:51.296Z,42.63
2024-03-16T06:30:40.920Z,47.78
2024-03-16T06:33:32.491Z,74.03
2024-03-16T06:36:21.243Z,83.45
2024-03-16T06:39:14.054Z,66.47
2024-03-16T06:42:02.125Z,73.63
2024-03-16T06:44:51.540Z,68.18
2024-03-16T06:47:39.694Z,60.65
2024-03-16T06:50:27.757Z,63.35
2024-03-16T06:53:16.379Z,55.65
2024-03-16T06:56:05.494Z,56.13
2024-03-16T06:58:53.604Z,61.40
2024-03-16T07:01:41.587Z,62.92
2024-03-16T07:04:30.037Z,69.35
2024-03-16T07:07:18.003Z,51.25
2024-03-16T07:10:07.678Z,48.75
2024-03-16T07:12:56.021Z,56.70
2024-03-16T07:15:45.363Z,52.60
2024-03-16T07:18:34.424Z,57.10
2024-03-16T07:21:25.796Z,64.40
2024-03-16T07:24:16.481Z,79.60
2024-03-16T07:27:08.635Z,58.50
2024-03-16T07:29:57.472Z,72.78
2024-03-16T07:32:45.430Z,58.05
2024-03-16T07:35:33.350Z,64.85
2024-03-16T07:38:21.220Z,56.70
2024-03-16T07:41:10.088Z,60.53
2024-03-16T07:43:57.944Z,55.80
2024-03-16T07:46:48.103Z,47.80
2024-03-16T07:49:36.156Z,65.07
2024-03-16T07:52:24.247Z,65.88
2024-03-16T07:55:13.168Z,71.20
2024-03-16T07:58:01.429Z,65.95
2024-03-16T08:00:49.593Z,65.53
2024-03-16T08:03:38.017Z,61.53
2024-03-16T08:06:26.019Z,73.85
2024-03-16T08:09:14.324Z,62.63
2024-03-16T08:12:02.326Z,70.72
2024-03-16T08:14:50.184Z,66.43
2024-03-16T08:17:38.076Z,67.55
2024-03-16T08:20:26.358Z,62.80
2024-03-16T08:23:14.291Z,68.15
2024-03-16T08:26:02.360Z,62.53
2024-03-16T08:28:50.246Z,61.30
2024-03-16T08:31:38.116Z,59.80
2024-03-16T08:34:26.623Z,58.92
2024-03-16T08:37:17.426Z,64.45
2024-03-16T08:40:13.524Z,58.05
2024-03-16T08:43:02.190Z,59.78
2024-03-16T08:45:50.274Z,59.00
2024-03-16T08:48:38.352Z,68.90
2024-03-16T08:51:26.890Z,66.45
2024-03-16T08:54:15.035Z,67.93
2024-03-16T08:57:03.445Z,69.95
2024-03-16T08:59:52.521Z,69.15
2024-03-16T09:02:40.386Z,66.70
2024-03-16T09:05:28.222Z,77.97
2024-03-16T09:08:16.122Z,74.63
2024-03-16T09:11:04.019Z,74.38
2024-03-16T09:13:52.104Z,70.40
2024-03-16T09:16:42.086Z,62.42
2024-03-16T09:19:30.398Z,66.50
2024-03-16T09:22:18.448Z,76.13
2024-03-16T09:25:07.772Z,70.07
2024-03-16T09:27:55.947Z,76.65
2024-03-16T09:30:46.437Z,65.07
2024-03-16T09:33:34.852Z,72.13
2024-03-16T09:36:22.890Z,79.15
2024-03-16T09:39:11.936Z,75.25
2024-03-16T09:42:00.000Z,66.00
